Time;durP1;ratioP1;P1;durP2;ratioP2;P2;SDS_P1;SDS_P2;PMS_P1;PMS_P2;Temp;Humidity;BMP_temperature;BMP_pressure;BME280_temperature;BME280_humidity;BME280_pressure;Samples;Min_cycle;Max_cycle;Signal;HPM_P1;HPM_P2
2023/02/25 00:01:50;;;;;;;12.50;4.47;;;4.90;99.90;;;;;;5055062;28;20972;-73
2023/02/25 00:04:17;;;;;;;10.97;3.20;;;4.90;99.90;;;;;;5058563;28;20887;-73
2023/02/25 00:06:44;;;;;;;16.57;3.10;;;4.90;99.90;;;;;;5060254;28;20468;-73
2023/02/25 00:09:12;;;;;;;9.07;3.60;;;4.90;99.90;;;;;;5071288;28;20420;-73
2023/02/25 00:11:40;;;;;;;11.30;4.13;;;4.90;99.90;;;;;;5063565;28;20438;-73
2023/02/25 00:14:09;;;;;;;17.37;4.20;;;4.90;99.90;;;;;;5058241;28;20438;-72
2023/02/25 00:16:36;;;;;;;14.20;3.30;;;4.90;99.90;;;;;;5060410;28;20465;-73
2023/02/25 00:19:05;;;;;;;18.10;2.80;;;4.90;99.90;;;;;;5058981;28;20842;-72
2023/02/25 00:21:32;;;;;;;11.80;5.67;;;5.00;99.90;;;;;;5056182;28;20860;-73
2023/02/25 00:23:59;;;;;;;17.67;3.40;;;4.90;99.90;;;;;;5055361;28;20488;-73
2023/02/25 00:26:27;;;;;;;13.10;2.90;;;4.90;99.90;;;;;;5057012;28;20473;-73
2023/02/25 00:28:55;;;;;;;10.00;3.00;;;4.90;99.90;;;;;;5056631;28;20457;-73
2023/02/25 00:31:25;;;;;;;15.70;2.53;;;4.80;99.90;;;;;;5055152;28;20965;-74
2023/02/25 00:33:53;;;;;;;11.67;2.80;;;4.80;99.90;;;;;;5056828;28;20453;-73
2023/02/25 00:36:22;;;;;;;12.73;2.93;;;4.80;99.90;;;;;;5056645;28;20496;-73
2023/02/25 00:38:51;;;;;;;8.03;3.03;;;4.90;99.90;;;;;;5056593;28;20441;-73
2023/02/25 00:41:20;;;;;;;8.93;2.13;;;4.80;99.90;;;;;;5055795;28;20446;-74
2023/02/25 00:43:52;;;;;;;9.53;2.80;;;4.80;99.90;;;;;;5056821;28;20480;-73
2023/02/25 00:46:19;;;;;;;13.17;3.50;;;4.80;99.90;;;;;;5057150;28;20910;-74
2023/02/25 00:48:47;;;;;;;12.73;2.87;;;4.90;99.90;;;;;;5057327;28;20452;-74
2023/02/25 00:51:16;;;;;;;8.00;3.00;;;4.80;99.90;;;;;;5058313;28;20934;-73
2023/02/25 00:53:45;;;;;;;16.03;2.67;;;4.80;99.90;;;;;;5060670;28;20430;-73
2023/02/25 00:56:14;;;;;;;14.03;3.00;;;4.80;99.90;;;;;;5073219;28;20423;-73
2023/02/25 00:58:42;;;;;;;12.67;2.10;;;4.70;99.90;;;;;;5059586;28;20452;-73
2023/02/25 01:01:19;;;;;;;8.27;2.30;;;4.60;99.90;;;;;;5054779;28;20449;-73
2023/02/25 01:03:46;;;;;;;11.17;2.43;;;4.70;99.90;;;;;;5056063;28;20453;-73
2023/02/25 01:06:13;;;;;;;11.57;2.97;;;4.60;99.90;;;;;;5055726;28;20473;-73
2023/02/25 01:08:40;;;;;;;13.13;3.03;;;4.60;99.90;;;;;;5055011;28;20481;-73
2023/02/25 01:11:14;;;;;;;18.30;3.70;;;4.60;99.90;;;;;;5055959;28;20457;-73
2023/02/25 01:13:41;;;;;;;7.70;2.10;;;4.50;99.90;;;;;;5055102;28;20455;-73
2023/02/25 01:16:13;;;;;;;11.63;2.53;;;4.50;99.90;;;;;;5055571;28;20453;-73
2023/02/25 01:18:42;;;;;;;10.90;3.13;;;4.50;99.90;;;;;;5055727;28;20449;-73
2023/02/25 01:21:17;;;;;;;11.20;2.57;;;4.50;99.90;;;;;;5038305;28;20536;-72
2023/02/25 01:23:45;;;;;;;14.70;3.50;;;4.50;99.90;;;;;;5056010;28;20433;-73
2023/02/25 01:26:12;;;;;;;12.70;2.73;;;4.40;99.90;;;;;;5055491;28;20485;-72
2023/02/25 01:28:39;;;;;;;23.30;2.80;;;4.40;99.90;;;;;;5055414;28;20941;-72
2023/02/25 01:31:08;;;;;;;9.37;3.10;;;4.40;99.90;;;;;;5054955;28;20446;-73
2023/02/25 01:33:37;;;;;;;10.43;2.50;;;4.40;99.90;;;;;;5055380;28;20503;-72
2023/02/25 01:36:11;;;;;;;10.57;2.50;;;4.40;99.90;;;;;;5054461;28;20849;-73
2023/02/25 01:38:38;;;;;;;12.73;2.63;;;4.40;99.90;;;;;;5055586;28;20952;-72
2023/02/25 01:41:05;;;;;;;14.47;2.67;;;4.40;99.90;;;;;;5056073;28;20454;-73
2023/02/25 01:43:32;;;;;;;11.60;2.50;;;4.40;99.90;;;;;;5056509;28;20480;-73
2023/02/25 01:45:59;;;;;;;13.83;3.13;;;4.40;99.90;;;;;;5057736;28;20489;-73
2023/02/25 01:48:29;;;;;;;15.67;2.90;;;4.40;99.90;;;;;;5060106;28;20458;-73
2023/02/25 01:51:01;;;;;;;14.00;3.07;;;4.40;99.90;;;;;;5065944;28;20503;-79
2023/02/25 01:53:33;;;;;;;19.43;2.70;;;4.50;99.90;;;;;;5054686;28;20438;-73
2023/02/25 01:56:01;;;;;;;8.83;2.60;;;4.50;99.90;;;;;;5054944;28;20438;-73
2023/02/25 01:58:29;;;;;;;7.03;2.57;;;4.50;99.90;;;;;;5054780;28;20851;-73
2023/02/25 02:00:56;;;;;;;10.13;2.47;;;4.50;99.90;;;;;;5037249;28;20450;-73
2023/02/25 02:03:25;;;;;;;9.50;2.30;;;4.50;99.90;;;;;;5055179;28;20473;-73
2023/02/25 02:06:03;;;;;;;17.33;3.10;;;4.50;99.90;;;;;;5054448;28;20516;-74
2023/02/25 02:08:33;;;;;;;4.87;1.90;;;4.50;99.90;;;;;;5055685;28;20441;-73
2023/02/25 02:11:01;;;;;;;13.93;2.97;;;4.50;99.90;;;;;;5055740;28;20430;-72
2023/02/25 02:13:29;;;;;;;16.80;2.80;;;4.60;99.90;;;;;;5055496;28;21025;-72
2023/02/25 02:16:18;;;;;;;11.97;3.20;;;4.50;99.90;;;;;;5056725;28;20445;-73
2023/02/25 02:18:50;;;;;;;8.03;2.60;;;4.50;99.90;;;;;;5052554;28;20464;-72
2023/02/25 02:21:34;;;;;;;15.97;3.20;;;4.50;99.90;;;;;;5053538;28;20438;-72
2023/02/25 02:24:21;;;;;;;17.10;3.17;;;4.50;99.90;;;;;;5053420;28;20926;-72
2023/02/25 02:26:56;;;;;;;8.37;2.60;;;4.50;99.90;;;;;;5054207;28;20461;-73
2023/02/25 02:29:47;;;;;;;5.83;2.40;;;4.50;99.90;;;;;;5053223;28;20443;-72
2023/02/25 02:32:23;;;;;;;10.20;2.90;;;4.50;99.90;;;;;;5048305;28;20453;-72
2023/02/25 02:34:56;;;;;;;16.37;3.43;;;4.50;99.90;;;;;;5054226;28;20425;-73
2023/02/25 02:37:32;;;;;;;12.43;3.07;;;4.50;99.90;;;;;;5054345;28;20457;-73
2023/02/25 02:40:12;;;;;;;13.67;3.57;;;4.40;99.90;;;;;;5054585;28;20429;-73
2023/02/25 02:42:49;;;;;;;12.93;3.47;;;4.40;99.90;;;;;;5053863;28;20452;-73
2023/02/25 02:45:21;;;;;;;15.47;3.60;;;4.50;99.90;;;;;;5053925;28;20576;-73
2023/02/25 02:47:54;;;;;;;13.00;3.30;;;4.50;99.90;;;;;;5054102;28;20461;-73
2023/02/25 02:50:29;;;;;;;6.40;2.10;;;4.50;99.90;;;;;;5053471;28;20479;-73
2023/02/25 02:53:02;;;;;;;8.83;3.40;;;4.60;99.90;;;;;;5053921;28;20425;-73
2023/02/25 02:55:36;;;;;;;8.07;2.80;;;4.60;99.90;;;;;;5054168;28;20426;-73
2023/02/25 02:58:07;;;;;;;16.30;2.77;;;4.70;99.90;;;;;;5053274;28;20461;-73
2023/02/25 03:00:37;;;;;;;13.57;2.97;;;4.70;99.90;;;;;;5061007;28;20450;-73
2023/02/25 03:03:12;;;;;;;19.07;3.20;;;4.60;99.90;;;;;;5071111;28;20454;-72
2023/02/25 03:05:42;;;;;;;10.33;2.87;;;4.60;99.90;;;;;;5053722;28;20924;-72
2023/02/25 03:08:13;;;;;;;15.53;3.80;;;4.60;99.90;;;;;;5054378;28;20468;-72
2023/02/25 03:10:40;;;;;;;5.53;2.50;;;4.60;99.90;;;;;;5054252;28;20414;-72
2023/02/25 03:13:08;;;;;;;12.30;3.27;;;4.60;99.90;;;;;;5053875;28;20961;-72
2023/02/25 03:15:37;;;;;;;9.87;2.50;;;4.60;99.90;;;;;;5053725;28;20449;-72
2023/02/25 03:18:15;;;;;;;8.03;2.70;;;4.60;99.90;;;;;;5052135;28;20485;-72
2023/02/25 03:20:48;;;;;;;6.50;2.40;;;4.60;99.90;;;;;;5054845;28;20429;-72
2023/02/25 03:23:20;;;;;;;11.10;2.50;;;4.70;99.90;;;;;;5052787;28;20460;-72
2023/02/25 03:25:51;;;;;;;22.50;3.43;;;4.70;99.90;;;;;;5053746;28;20469;-72
2023/02/25 03:28:25;;;;;;;14.70;2.83;;;4.70;99.90;;;;;;5054493;28;20488;-73
2023/02/25 03:31:02;;;;;;;9.90;3.30;;;4.70;99.90;;;;;;5054404;28;20445;-73
2023/02/25 03:33:36;;;;;;;13.20;2.60;;;4.60;99.90;;;;;;5053721;28;20452;-73
2023/02/25 03:36:11;;;;;;;13.07;2.80;;;4.60;99.90;;;;;;5053835;28;20801;-72
2023/02/25 03:38:44;;;;;;;10.00;2.80;;;4.60;99.90;;;;;;5057991;28;20421;-72
2023/02/25 03:41:14;;;;;;;6.30;2.53;;;4.50;99.90;;;;;;5058946;28;20898;-72
2023/02/25 03:43:45;;;;;;;12.07;2.40;;;4.50;99.90;;;;;;5057985;28;20460;-72
2023/02/25 03:46:14;;;;;;;11.27;2.83;;;4.50;99.90;;;;;;5058875;28;20485;-72
2023/02/25 03:48:44;;;;;;;16.10;2.97;;;4.50;99.90;;;;;;5063027;28;20445;-73
2023/02/25 03:51:15;;;;;;;17.53;3.10;;;4.50;99.90;;;;;;5074587;28;20434;-73
2023/02/25 03:53:42;;;;;;;19.90;3.17;;;4.60;99.90;;;;;;5059148;28;20438;-73
2023/02/25 03:56:11;;;;;;;8.90;2.93;;;4.60;99.90;;;;;;5059452;28;20454;-73
2023/02/25 03:58:40;;;;;;;14.30;3.60;;;4.60;99.90;;;;;;5060107;28;20446;-72
2023/02/25 04:01:11;;;;;;;12.13;2.97;;;4.60;99.90;;;;;;5061865;28;20806;-73
2023/02/25 04:03:38;;;;;;;13.53;3.23;;;4.60;99.90;;;;;;5066776;28;20819;-73
2023/02/25 04:06:07;;;;;;;13.23;3.20;;;4.70;99.90;;;;;;5056897;28;20488;-73
2023/02/25 04:08:34;;;;;;;14.03;2.70;;;4.70;99.90;;;;;;5056712;28;20914;-73
2023/02/25 04:11:01;;;;;;;8.53;2.27;;;4.70;99.90;;;;;;5056985;28;20453;-73
2023/02/25 04:13:29;;;;;;;14.80;2.40;;;4.70;99.90;;;;;;5057007;28;20441;-72
2023/02/25 04:15:56;;;;;;;9.93;3.03;;;4.70;99.90;;;;;;5055851;28;20808;-74
2023/02/25 04:18:25;;;;;;;13.63;2.50;;;4.60;99.90;;;;;;5039126;28;20473;-73
2023/02/25 04:20:52;;;;;;;15.37;2.60;;;4.60;99.90;;;;;;5058464;28;20453;-73
2023/02/25 04:23:20;;;;;;;14.37;3.10;;;4.60;99.90;;;;;;5058070;28;20918;-71
2023/02/25 04:25:47;;;;;;;10.83;2.63;;;4.60;99.90;;;;;;5056924;28;20485;-72
2023/02/25 04:28:14;;;;;;;11.33;2.97;;;4.60;99.90;;;;;;5056265;28;20536;-72
2023/02/25 04:30:41;;;;;;;11.17;2.27;;;4.60;99.90;;;;;;5055787;28;20449;-72
2023/02/25 04:33:10;;;;;;;11.70;2.67;;;4.70;99.90;;;;;;5056323;28;20476;-72
2023/02/25 04:35:38;;;;;;;11.37;2.33;;;4.60;99.90;;;;;;5056271;28;20437;-72
2023/02/25 04:38:05;;;;;;;11.37;2.37;;;4.70;99.90;;;;;;5055938;28;20476;-73
2023/02/25 04:40:34;;;;;;;8.50;1.83;;;4.80;99.90;;;;;;5056243;28;20438;-73
2023/02/25 04:43:01;;;;;;;15.20;2.40;;;4.70;99.90;;;;;;5055820;28;20965;-72
2023/02/25 04:45:28;;;;;;;19.90;4.43;;;4.70;99.90;;;;;;5054843;28;20470;-72
2023/02/25 04:47:56;;;;;;;11.77;2.60;;;4.70;99.90;;;;;;5055123;28;20472;-72
2023/02/25 04:50:24;;;;;;;12.50;2.50;;;4.70;99.90;;;;;;5056110;28;20864;-72
2023/02/25 04:52:51;;;;;;;11.97;2.47;;;4.60;99.90;;;;;;5055580;28;20476;-72
2023/02/25 04:55:18;;;;;;;9.93;3.27;;;4.60;99.90;;;;;;5054729;28;20457;-72
2023/02/25 04:57:47;;;;;;;14.77;2.20;;;4.60;99.90;;;;;;5055261;28;20555;-73
2023/02/25 05:00:17;;;;;;;22.43;2.33;;;4.70;99.90;;;;;;5056321;28;20449;-73
2023/02/25 05:02:46;;;;;;;10.30;2.47;;;4.60;99.90;;;;;;5054698;28;20446;-71
2023/02/25 05:05:14;;;;;;;12.93;3.07;;;4.60;99.90;;;;;;5055611;28;20465;-72
2023/02/25 05:07:43;;;;;;;16.20;3.10;;;4.60;99.90;;;;;;5055786;28;20492;-73
2023/02/25 05:10:13;;;;;;;12.17;2.57;;;4.60;99.90;;;;;;5056437;28;20480;-73
2023/02/25 05:12:41;;;;;;;12.63;2.40;;;4.70;99.90;;;;;;5055599;28;20520;-73
2023/02/25 05:15:12;;;;;;;9.30;2.20;;;4.70;99.90;;;;;;5055697;28;20438;-72
2023/02/25 05:17:39;;;;;;;7.70;1.90;;;4.70;99.90;;;;;;5056043;28;20552;-73
2023/02/25 05:20:11;;;;;;;9.37;1.87;;;4.80;99.90;;;;;;5054372;28;20477;-73
2023/02/25 05:22:39;;;;;;;14.67;2.57;;;4.80;99.90;;;;;;5055248;28;20921;-73
2023/02/25 05:25:06;;;;;;;13.77;2.20;;;4.80;99.90;;;;;;5054058;28;20997;-73
2023/02/25 05:27:33;;;;;;;11.80;2.77;;;4.80;99.90;;;;;;5054711;28;20489;-73
2023/02/25 05:30:00;;;;;;;10.07;2.30;;;4.80;99.90;;;;;;5055480;28;20490;-73
2023/02/25 05:32:31;;;;;;;9.53;2.50;;;4.80;99.90;;;;;;5055486;28;20453;-73
2023/02/25 05:34:59;;;;;;;12.27;2.27;;;4.80;99.90;;;;;;5055506;28;20490;-73
2023/02/25 05:37:26;;;;;;;13.73;2.50;;;4.80;99.90;;;;;;5055282;28;20552;-73
2023/02/25 05:39:52;;;;;;;11.13;3.63;;;4.80;99.90;;;;;;5054873;28;20453;-74
2023/02/25 05:42:19;;;;;;;16.90;2.77;;;4.70;99.90;;;;;;5055244;28;20449;-72
2023/02/25 05:44:46;;;;;;;18.63;2.80;;;4.70;99.90;;;;;;5053867;28;20851;-72
2023/02/25 05:47:14;;;;;;;16.10;2.77;;;4.70;99.90;;;;;;5054436;28;20492;-72
2023/02/25 05:49:42;;;;;;;21.70;3.50;;;4.70;99.90;;;;;;5055429;28;20472;-73
2023/02/25 05:52:10;;;;;;;9.00;2.70;;;4.80;99.90;;;;;;5054613;28;21001;-73
2023/02/25 05:54:37;;;;;;;10.40;2.83;;;4.80;99.90;;;;;;5063257;28;20949;-73
2023/02/25 05:57:04;;;;;;;10.87;3.43;;;4.70;99.90;;;;;;5068503;28;20466;-74
2023/02/25 05:59:31;;;;;;;11.20;2.90;;;4.80;99.90;;;;;;5054227;28;20450;-73
2023/02/25 06:01:58;;;;;;;18.60;2.90;;;4.80;99.90;;;;;;5055250;28;20457;-73
2023/02/25 06:04:25;;;;;;;8.77;2.63;;;4.70;99.90;;;;;;5054320;28;20453;-72
2023/02/25 06:06:54;;;;;;;16.03;3.07;;;4.80;99.90;;;;;;5057152;28;20489;-73
2023/02/25 06:09:21;;;;;;;7.43;2.43;;;4.70;99.90;;;;;;5058516;28;20458;-73
2023/02/25 06:11:49;;;;;;;9.70;2.23;;;4.70;99.90;;;;;;5058104;28;20449;-72
2023/02/25 06:14:17;;;;;;;15.80;2.67;;;4.70;99.90;;;;;;5064693;28;20458;-73
2023/02/25 06:16:44;;;;;;;10.43;3.27;;;4.80;99.90;;;;;;5055112;28;20465;-72
2023/02/25 06:19:12;;;;;;;9.20;2.40;;;4.80;99.90;;;;;;5055203;28;20763;-73
2023/02/25 06:21:39;;;;;;;12.37;3.23;;;4.80;99.90;;;;;;5056440;28;20456;-72
2023/02/25 06:24:10;;;;;;;20.30;3.43;;;4.80;99.90;;;;;;5058090;28;20460;-72
2023/02/25 06:26:40;;;;;;;13.80;2.80;;;4.80;99.90;;;;;;5055185;28;20493;-73
2023/02/25 06:29:08;;;;;;;10.77;2.80;;;4.80;99.90;;;;;;5055289;28;20438;-74
2023/02/25 06:31:36;;;;;;;14.90;3.43;;;4.80;99.90;;;;;;5055902;28;20449;-73
2023/02/25 06:34:03;;;;;;;16.10;5.63;;;4.80;99.90;;;;;;5057163;28;20438;-72
2023/02/25 06:36:30;;;;;;;21.20;3.70;;;4.80;99.90;;;;;;5057400;28;20469;-73
2023/02/25 06:38:57;;;;;;;16.33;2.57;;;4.80;99.90;;;;;;5054060;28;20452;-72
2023/02/25 06:41:26;;;;;;;14.63;3.23;;;4.90;99.90;;;;;;5060665;28;20449;-72
2023/02/25 06:43:53;;;;;;;14.03;3.00;;;4.90;99.90;;;;;;5069614;28;20449;-72
2023/02/25 06:46:22;;;;;;;16.00;3.20;;;5.00;99.90;;;;;;5053044;28;20528;-73
2023/02/25 06:48:49;;;;;;;10.73;2.57;;;5.00;99.90;;;;;;5053551;28;20824;-73
2023/02/25 06:51:16;;;;;;;12.60;3.20;;;5.00;99.90;;;;;;5054179;28;20859;-72
2023/02/25 06:53:46;;;;;;;22.20;3.60;;;4.90;99.90;;;;;;5053884;28;20437;-72
2023/02/25 06:56:14;;;;;;;21.03;3.63;;;4.90;99.90;;;;;;5052389;28;20797;-73
2023/02/25 06:58:45;;;;;;;17.23;3.40;;;5.00;99.90;;;;;;5054019;28;20514;-72
2023/02/25 07:01:14;;;;;;;18.33;3.93;;;4.90;99.90;;;;;;5053690;28;20438;-72
2023/02/25 07:03:43;;;;;;;16.77;4.53;;;4.90;99.90;;;;;;5053405;28;20918;-72
2023/02/25 07:06:10;;;;;;;15.10;4.97;;;5.00;99.90;;;;;;5051696;28;20485;-72
2023/02/25 07:08:37;;;;;;;15.40;2.90;;;5.00;99.90;;;;;;5053648;28;20457;-72
2023/02/25 07:11:12;;;;;;;15.73;3.90;;;5.00;99.90;;;;;;5053483;28;20441;-73
2023/02/25 07:13:39;;;;;;;15.50;3.93;;;5.10;99.90;;;;;;5053941;28;20475;-72
2023/02/25 07:16:08;;;;;;;15.33;3.07;;;5.10;99.90;;;;;;5054471;28;20797;-72
2023/02/25 07:18:34;;;;;;;16.07;4.47;;;5.10;99.90;;;;;;5053831;28;20439;-72
2023/02/25 07:21:01;;;;;;;13.23;2.90;;;5.10;99.90;;;;;;5053483;28;21000;-74
2023/02/25 07:23:28;;;;;;;18.73;3.07;;;5.10;99.90;;;;;;5053398;28;20918;-72
2023/02/25 07:25:55;;;;;;;17.63;3.00;;;5.10;99.90;;;;;;5053617;28;20437;-74
2023/02/25 07:28:22;;;;;;;17.83;3.57;;;5.20;99.90;;;;;;5052305;28;20477;-72
2023/02/25 07:30:49;;;;;;;18.43;2.87;;;5.10;99.90;;;;;;5052287;28;20985;-72
2023/02/25 07:33:19;;;;;;;19.73;3.57;;;5.20;99.90;;;;;;5053889;28;20441;-73
2023/02/25 07:35:46;;;;;;;17.47;2.73;;;5.20;99.90;;;;;;5052597;28;20449;-73
2023/02/25 07:38:13;;;;;;;13.37;2.40;;;5.20;99.90;;;;;;5052948;28;20474;-73
2023/02/25 07:40:41;;;;;;;11.37;2.63;;;5.20;99.90;;;;;;5052895;28;20837;-73
2023/02/25 07:43:09;;;;;;;15.67;2.27;;;5.30;99.90;;;;;;5053222;28;20945;-73
2023/02/25 07:45:36;;;;;;;17.40;3.37;;;5.30;99.90;;;;;;5052373;28;20457;-73
2023/02/25 07:48:03;;;;;;;16.00;4.30;;;5.20;99.90;;;;;;5053324;28;20493;-73
2023/02/25 07:50:32;;;;;;;9.47;2.57;;;5.10;99.90;;;;;;5053231;28;20457;-73
2023/02/25 07:52:58;;;;;;;13.33;4.20;;;5.10;99.90;;;;;;5053228;28;20446;-73
2023/02/25 07:55:26;;;;;;;15.00;3.73;;;5.20;99.90;;;;;;5053351;28;20460;-73
2023/02/25 07:57:53;;;;;;;12.63;3.13;;;5.20;99.90;;;;;;5058351;28;20911;-73
2023/02/25 08:00:20;;;;;;;13.17;2.70;;;5.20;99.90;;;;;;5058327;28;20437;-73
2023/02/25 08:02:47;;;;;;;15.10;3.07;;;5.30;99.90;;;;;;5069859;28;20448;-73
2023/02/25 08:05:14;;;;;;;12.93;2.50;;;5.30;99.90;;;;;;5039582;28;20522;-73
2023/02/25 08:07:43;;;;;;;13.53;2.43;;;5.30;99.90;;;;;;5056022;28;20477;-73
2023/02/25 08:10:10;;;;;;;11.53;3.80;;;5.40;99.90;;;;;;5068651;28;20449;-73
2023/02/25 08:12:40;;;;;;;17.03;3.67;;;5.50;99.90;;;;;;5066214;28;20452;-72
2023/02/25 08:15:09;;;;;;;12.13;2.83;;;5.60;99.90;;;;;;5073329;28;20445;-73
2023/02/25 08:17:35;;;;;;;10.67;2.90;;;5.70;99.90;;;;;;5059807;28;20485;-73
2023/02/25 08:20:03;;;;;;;13.17;2.87;;;5.80;99.90;;;;;;5081935;28;20452;-73
2023/02/25 08:22:30;;;;;;;14.23;3.67;;;5.80;99.90;;;;;;5093327;28;20445;-74
2023/02/25 08:24:59;;;;;;;14.97;3.00;;;5.90;99.90;;;;;;5080314;28;20964;-73
2023/02/25 08:27:25;;;;;;;11.33;2.37;;;6.00;99.90;;;;;;5076689;28;20491;-73
2023/02/25 08:29:55;;;;;;;8.30;2.47;;;6.00;99.90;;;;;;5076619;28;20429;-73
2023/02/25 08:32:24;;;;;;;11.80;2.67;;;6.10;99.90;;;;;;5076437;28;20482;-72
2023/02/25 08:34:51;;;;;;;12.30;3.13;;;6.10;99.90;;;;;;5075393;28;20433;-72
2023/02/25 08:37:20;;;;;;;12.47;3.07;;;6.10;99.90;;;;;;5076535;28;20464;-73
2023/02/25 08:39:47;;;;;;;9.07;3.03;;;6.10;99.90;;;;;;5076540;28;20453;-72
2023/02/25 08:42:17;;;;;;;15.27;2.77;;;6.20;99.90;;;;;;5077105;28;20449;-72
2023/02/25 08:44:44;;;;;;;15.33;3.30;;;6.30;99.90;;;;;;5082006;28;20452;-72
2023/02/25 08:47:11;;;;;;;16.13;3.07;;;6.30;99.90;;;;;;5094350;28;20484;-72
2023/02/25 08:49:38;;;;;;;14.20;3.30;;;6.30;99.90;;;;;;5075404;28;20447;-72
2023/02/25 08:52:06;;;;;;;17.23;3.53;;;6.30;99.90;;;;;;5076128;28;20448;-72
2023/02/25 08:54:32;;;;;;;18.50;3.17;;;6.30;99.90;;;;;;5075933;28;20421;-72
2023/02/25 08:57:00;;;;;;;16.40;3.87;;;6.40;99.90;;;;;;5076021;28;20477;-73
2023/02/25 08:59:34;;;;;;;14.47;3.20;;;6.40;99.90;;;;;;5075980;28;20452;-72
2023/02/25 09:02:02;;;;;;;13.27;3.10;;;6.40;99.90;;;;;;5076217;28;20440;-72
2023/02/25 09:04:29;;;;;;;14.67;3.20;;;6.40;99.90;;;;;;5076258;28;21350;-72
2023/02/25 09:06:57;;;;;;;17.87;3.03;;;6.40;99.90;;;;;;5076590;28;21001;-72
2023/02/25 09:09:25;;;;;;;17.43;3.50;;;6.50;99.90;;;;;;5058620;28;20823;-73
2023/02/25 09:11:52;;;;;;;8.70;2.33;;;6.50;99.90;;;;;;5075959;28;20947;-72
2023/02/25 09:14:19;;;;;;;18.80;3.43;;;6.50;99.90;;;;;;5076100;28;20437;-72
2023/02/25 09:16:49;;;;;;;15.77;3.77;;;6.60;99.90;;;;;;5076290;28;20599;-72
2023/02/25 09:19:17;;;;;;;16.70;3.20;;;6.60;99.90;;;;;;5075618;28;20444;-73
2023/02/25 09:21:46;;;;;;;17.73;3.10;;;6.80;99.90;;;;;;5067365;28;20441;-72
2023/02/25 09:24:14;;;;;;;12.70;2.30;;;6.90;99.90;;;;;;5057134;28;20457;-73
2023/02/25 09:26:41;;;;;;;16.13;3.30;;;6.90;99.90;;;;;;5057410;28;20478;-73
2023/02/25 09:29:10;;;;;;;12.10;3.30;;;7.10;99.90;;;;;;5056310;28;20434;-72
2023/02/25 09:31:38;;;;;;;10.97;3.10;;;7.30;99.90;;;;;;5059458;28;20441;-72
2023/02/25 09:34:08;;;;;;;8.77;2.57;;;7.30;99.90;;;;;;5073384;28;20454;-73
2023/02/25 09:36:36;;;;;;;11.97;3.03;;;7.30;99.90;;;;;;5056815;28;20469;-72
2023/02/25 09:39:08;;;;;;;12.77;2.03;;;7.30;99.90;;;;;;5054819;28;20458;-72
2023/02/25 09:41:44;;;;;;;8.67;2.40;;;7.40;99.90;;;;;;5054936;28;20457;-73
2023/02/25 09:44:14;;;;;;;9.40;2.60;;;7.50;99.90;;;;;;5055420;28;20434;-73
2023/02/25 09:46:47;;;;;;;9.80;2.50;;;7.50;99.50;;;;;;5055269;28;21036;-73
2023/02/25 09:49:26;;;;;;;5.90;2.10;;;7.50;99.40;;;;;;5055858;28;20430;-72
2023/02/25 09:52:00;;;;;;;8.73;2.63;;;7.60;99.50;;;;;;5055512;28;20491;-73
2023/02/25 09:54:33;;;;;;;12.47;2.00;;;7.70;99.20;;;;;;5055487;28;20433;-72
2023/02/25 09:57:02;;;;;;;9.80;2.23;;;7.90;99.10;;;;;;5056064;28;20505;-73
2023/02/25 09:59:30;;;;;;;5.50;1.50;;;8.00;98.50;;;;;;5055145;28;20453;-73
2023/02/25 10:02:02;;;;;;;10.63;2.40;;;8.00;98.70;;;;;;5055477;28;20426;-72
2023/02/25 10:04:39;;;;;;;11.70;2.73;;;8.00;98.00;;;;;;5055511;28;20457;-72
2023/02/25 10:07:15;;;;;;;17.57;2.60;;;7.90;98.00;;;;;;5054607;28;20484;-73
2023/02/25 10:09:52;;;;;;;8.37;2.63;;;8.00;98.90;;;;;;5054463;28;20432;-73
2023/02/25 10:12:31;;;;;;;7.27;2.17;;;8.00;99.20;;;;;;5055035;28;20484;-74
2023/02/25 10:15:15;;;;;;;9.67;2.73;;;8.20;99.50;;;;;;5055110;28;20433;-74
2023/02/25 10:17:54;;;;;;;12.50;2.70;;;8.30;98.70;;;;;;5055421;28;20996;-74
2023/02/25 10:20:49;;;;;;;7.60;1.73;;;8.30;98.80;;;;;;5057307;28;20440;-74
2023/02/25 10:23:34;;;;;;;12.57;2.63;;;8.20;98.40;;;;;;5056243;28;20512;-75
2023/02/25 10:26:07;;;;;;;7.40;1.63;;;8.10;98.70;;;;;;5058159;28;20437;-74
2023/02/25 10:28:36;;;;;;;6.67;1.60;;;7.90;99.10;;;;;;5060511;28;20493;-74
2023/02/25 10:31:05;;;;;;;4.03;1.13;;;7.80;99.50;;;;;;5068553;28;20556;-74
2023/02/25 10:33:36;;;;;;;4.13;1.13;;;7.60;99.80;;;;;;5055468;28;20450;-74
2023/02/25 10:36:13;;;;;;;2.63;0.90;;;7.40;99.90;;;;;;5054841;28;20473;-74
2023/02/25 10:38:44;;;;;;;7.53;1.50;;;7.20;99.90;;;;;;5054846;28;20505;-74
2023/02/25 10:41:12;;;;;;;10.83;3.83;;;7.20;99.90;;;;;;5054350;28;20449;-74
2023/02/25 10:43:39;;;;;;;7.27;2.63;;;7.20;99.90;;;;;;5053135;28;20434;-73
2023/02/25 10:46:11;;;;;;;11.93;3.07;;;7.40;99.90;;;;;;5053726;28;20438;-74
2023/02/25 10:48:40;;;;;;;7.37;2.27;;;7.60;99.90;;;;;;5057015;28;20470;-74
2023/02/25 10:51:11;;;;;;;6.70;2.00;;;8.10;99.90;;;;;;5056940;28;20969;-73
2023/02/25 10:53:38;;;;;;;6.33;1.73;;;8.60;99.90;;;;;;5055457;28;20430;-74
2023/02/25 10:56:06;;;;;;;9.27;1.63;;;9.00;99.90;;;;;;5053658;28;20540;-75
2023/02/25 10:58:40;;;;;;;4.07;1.70;;;9.20;99.90;;;;;;5052502;28;20950;-74
2023/02/25 11:01:12;;;;;;;4.73;2.00;;;9.30;99.50;;;;;;5053917;28;20477;-74
2023/02/25 11:03:48;;;;;;;4.77;1.57;;;9.40;98.70;;;;;;5053496;28;20457;-74
2023/02/25 11:06:24;;;;;;;6.50;1.63;;;9.50;98.20;;;;;;5052955;28;20503;-74
2023/02/25 11:08:52;;;;;;;5.40;2.10;;;9.70;97.40;;;;;;5053614;28;20476;-74
2023/02/25 11:11:21;;;;;;;4.73;2.20;;;9.90;97.00;;;;;;5053459;28;20471;-74
2023/02/25 11:14:05;;;;;;;3.50;1.80;;;9.90;96.50;;;;;;5052721;28;20791;-75
2023/02/25 11:16:35;;;;;;;5.03;2.23;;;9.90;96.10;;;;;;5053666;28;20516;-74
2023/02/25 11:19:11;;;;;;;3.63;2.93;;;9.80;95.40;;;;;;5053621;28;20422;-74
2023/02/25 11:21:41;;;;;;;3.67;3.13;;;9.70;95.70;;;;;;5053309;28;20941;-74
2023/02/25 11:24:13;;;;;;;4.10;3.67;;;9.80;96.00;;;;;;5054385;28;20442;-74
2023/02/25 11:26:45;;;;;;;4.33;2.90;;;10.40;96.30;;;;;;5053916;28;20553;-74
2023/02/25 11:29:16;;;;;;;3.07;2.77;;;11.40;95.50;;;;;;5053897;28;20469;-74
2023/02/25 11:31:44;;;;;;;3.37;2.57;;;12.60;93.70;;;;;;5054826;28;20499;-74
2023/02/25 11:34:45;;;;;;;2.70;2.50;;;13.70;90.10;;;;;;5055722;28;20573;-74
2023/02/25 11:37:34;;;;;;;3.70;2.73;;;14.10;81.20;;;;;;5068841;28;20481;-74
2023/02/25 12:00:24;;;;;;;4.80;1.70;;;12.40;75.90;;;;;;5060825;28;20416;-74
2023/02/25 12:10:04;;;;;;;4.27;1.50;;;15.10;62.30;;;;;;5062829;28;20484;-74
2023/02/25 12:13:01;;;;;;;3.87;1.43;;;16.30;56.90;;;;;;5062882;28;20448;-74
2023/02/25 12:15:59;;;;;;;2.60;1.20;;;17.30;53.90;;;;;;5060548;28;20450;-74
2023/02/25 12:19:04;;;;;;;2.67;1.30;;;18.30;52.90;;;;;;5071655;28;20540;-74
2023/02/25 12:22:11;;;;;;;3.93;1.60;;;19.00;48.50;;;;;;5063615;22;20538;-58
2023/02/25 12:28:19;;;;;;;4.00;1.10;;;20.10;43.50;;;;;;5076591;28;20487;-58
2023/02/25 12:31:08;;;;;;;4.53;1.93;;;20.70;41.80;;;;;;5076812;28;20472;-58
2023/02/25 12:34:01;;;;;;;3.00;1.00;;;21.30;41.30;;;;;;5076396;28;20941;-58
2023/02/25 12:36:42;;;;;;;8.07;1.17;;;21.10;38.50;;;;;;5076756;28;20433;-58
2023/02/25 12:39:43;;;;;;;2.23;1.17;;;20.50;40.10;;;;;;5076470;28;20467;-58
2023/02/25 12:42:27;;;;;;;3.33;1.50;;;19.80;39.60;;;;;;5065010;28;20460;-58
2023/02/25 12:45:06;;;;;;;2.93;1.40;;;18.90;40.50;;;;;;5076031;28;20452;-58
2023/02/25 12:47:44;;;;;;;2.10;0.97;;;18.20;42.20;;;;;;5075838;28;20440;-58
2023/02/25 12:50:34;;;;;;;4.87;1.30;;;17.60;41.60;;;;;;5075525;28;21095;-58
2023/02/25 12:53:16;;;;;;;4.63;1.80;;;17.80;44.30;;;;;;5075709;28;20429;-58
2023/02/25 12:56:02;;;;;;;3.03;1.40;;;18.40;42.40;;;;;;5075835;28;20526;-58
2023/02/25 12:58:40;;;;;;;4.50;1.33;;;19.30;42.20;;;;;;5075666;28;20432;-58
2023/02/25 13:01:27;;;;;;;2.57;1.10;;;20.10;39.40;;;;;;5075705;28;20429;-58
2023/02/25 13:04:09;;;;;;;3.17;1.37;;;20.70;36.80;;;;;;5076163;28;20433;-58
2023/02/25 13:07:01;;;;;;;4.53;1.20;;;21.10;36.00;;;;;;5075511;28;20432;-58
2023/02/25 13:09:52;;;;;;;5.03;2.63;;;21.70;34.00;;;;;;5074955;28;20895;-58
2023/02/25 13:12:39;;;;;;;4.47;1.70;;;22.10;32.70;;;;;;5075430;28;20432;-58
2023/02/25 13:15:12;;;;;;;6.87;2.40;;;21.80;33.70;;;;;;5075018;28;20902;-58
2023/02/25 13:18:05;;;;;;;5.40;1.93;;;21.10;33.70;;;;;;5075354;28;20444;-58
2023/02/25 13:20:56;;;;;;;8.60;2.03;;;19.60;33.90;;;;;;5075274;28;20468;-58
2023/02/25 13:23:46;;;;;;;6.97;2.50;;;18.00;35.80;;;;;;5075236;28;20465;-58
2023/02/25 13:26:27;;;;;;;5.20;1.93;;;17.00;38.60;;;;;;5075013;28;20440;-57
2023/02/25 13:29:12;;;;;;;3.47;1.90;;;16.40;41.00;;;;;;5074641;28;21050;-58
2023/02/25 13:31:48;;;;;;;4.70;1.87;;;16.30;42.70;;;;;;5074964;28;20494;-58
2023/02/25 13:34:28;;;;;;;4.47;1.77;;;16.40;43.40;;;;;;5075877;28;20457;-58
2023/02/25 13:37:27;;;;;;;4.73;1.43;;;16.80;44.40;;;;;;5074883;28;20448;-58
2023/02/25 13:40:13;;;;;;;5.33;1.60;;;17.70;42.40;;;;;;5069566;28;20483;-58
2023/02/25 13:43:05;;;;;;;4.50;2.27;;;18.40;40.80;;;;;;5074841;28;20429;-58
2023/02/25 13:45:55;;;;;;;6.33;2.50;;;19.30;39.30;;;;;;5074727;28;20532;-58